createdAt,value
2023-04-17T00:01:21.340Z,18.53
2023-04-17T00:03:52.556Z,18.60
2023-04-17T00:06:22.330Z,18.90
2023-04-17T00:08:50.628Z,18.73
2023-04-17T00:11:19.050Z,19.07
2023-04-17T00:13:47.368Z,19.40
2023-04-17T00:16:15.668Z,19.77
2023-04-17T00:18:43.928Z,20.57
2023-04-17T00:21:12.155Z,19.67
2023-04-17T00:23:41.776Z,18.83
2023-04-17T00:26:10.133Z,19.93
2023-04-17T00:28:38.364Z,20.13
2023-04-17T00:31:06.822Z,20.17
2023-04-17T00:33:35.083Z,19.50
2023-04-17T00:36:03.444Z,19.80
2023-04-17T00:38:31.646Z,19.90
2023-04-17T00:41:01.385Z,20.47
2023-04-17T00:43:29.694Z,19.93
2023-04-17T00:45:58.001Z,19.80
2023-04-17T00:48:26.740Z,19.50
2023-04-17T00:50:55.358Z,20.43
2023-04-17T00:53:23.858Z,20.10
2023-04-17T00:55:52.410Z,19.27
2023-04-17T00:58:22.421Z,20.43
2023-04-17T01:00:50.823Z,20.60
2023-04-17T01:03:19.308Z,20.70
2023-04-17T01:05:49.335Z,20.97
2023-04-17T01:08:17.700Z,20.90
2023-04-17T01:10:46.027Z,21.70
2023-04-17T01:13:14.308Z,21.27
2023-04-17T01:15:44.688Z,20.80
2023-04-17T01:18:12.944Z,20.67
2023-04-17T01:20:41.193Z,21.57
2023-04-17T01:23:09.485Z,19.57
2023-04-17T01:25:39.152Z,20.47
2023-04-17T01:28:07.470Z,20.20
2023-04-17T01:30:35.828Z,20.27
2023-04-17T01:33:04.339Z,20.27
2023-04-17T01:35:32.598Z,20.03
2023-04-17T01:38:00.960Z,20.07
2023-04-17T01:40:29.293Z,19.37
2023-04-17T01:42:59.076Z,20.30
2023-04-17T01:45:27.484Z,19.30
2023-04-17T01:47:55.781Z,20.93
2023-04-17T01:50:24.046Z,20.60
2023-04-17T01:52:52.493Z,20.40
2023-04-17T01:55:20.795Z,20.30
2023-04-17T01:57:49.484Z,20.63
2023-04-17T02:00:19.654Z,19.90
2023-04-17T02:02:48.071Z,20.33
2023-04-17T02:05:16.522Z,21.40
2023-04-17T02:07:44.766Z,20.93
2023-04-17T02:10:13.142Z,21.30
2023-04-17T02:12:41.412Z,21.60
2023-04-17T02:15:10.141Z,21.60
2023-04-17T02:17:39.826Z,21.97
2023-04-17T02:20:20.685Z,22.30
2023-04-17T02:22:48.961Z,20.93
2023-04-17T02:25:17.178Z,22.03
2023-04-17T02:27:45.464Z,21.60
2023-04-17T02:30:14.120Z,21.63
2023-04-17T02:32:44.965Z,21.73
2023-04-17T02:35:13.298Z,22.43
2023-04-17T02:37:41.693Z,21.63
2023-04-17T02:40:10.609Z,21.03
2023-04-17T02:42:38.835Z,23.07
2023-04-17T02:45:07.646Z,24.00
2023-04-17T02:47:36.467Z,23.23
2023-04-17T02:50:06.662Z,24.63
2023-04-17T02:52:35.059Z,23.73
2023-04-17T02:55:03.310Z,23.93
2023-04-17T02:57:31.658Z,22.80
2023-04-17T03:00:01.389Z,24.80
2023-04-17T03:02:31.099Z,24.03
2023-04-17T03:05:02.077Z,23.73
2023-04-17T03:07:31.815Z,23.77
2023-04-17T03:10:00.226Z,23.83
2023-04-17T03:12:28.485Z,23.67
2023-04-17T03:14:56.760Z,23.13
2023-04-17T03:17:25.111Z,25.13
2023-04-17T03:19:53.482Z,23.83
2023-04-17T03:22:21.688Z,23.80
2023-04-17T03:24:51.356Z,23.47
2023-04-17T03:27:24.191Z,23.90
2023-04-17T03:29:52.561Z,24.13
2023-04-17T03:32:20.927Z,23.90
2023-04-17T03:34:49.183Z,25.13
2023-04-17T03:37:17.452Z,26.57
2023-04-17T03:39:45.646Z,25.90
2023-04-17T03:42:15.436Z,26.93
2023-04-17T03:44:43.650Z,25.77
2023-04-17T03:47:12.106Z,26.70
2023-04-17T03:49:40.331Z,27.17
2023-04-17T03:52:08.534Z,26.57
2023-04-17T03:54:36.793Z,26.27
2023-04-17T03:57:05.448Z,26.20
2023-04-17T03:59:35.186Z,27.60
2023-04-17T04:02:03.585Z,27.60
2023-04-17T04:04:32.121Z,26.83
2023-04-17T04:07:01.478Z,27.63
2023-04-17T04:09:29.723Z,27.47
2023-04-17T04:11:58.349Z,29.67
2023-04-17T04:14:26.569Z,28.43
2023-04-17T04:16:56.148Z,27.87
2023-04-17T04:19:24.440Z,28.73
2023-04-17T04:21:53.542Z,28.83
2023-04-17T04:24:21.926Z,28.17
2023-04-17T04:26:50.502Z,28.83
2023-04-17T04:29:18.990Z,30.00
2023-04-17T04:31:50.883Z,29.07
2023-04-17T04:34:21.541Z,29.73
2023-04-17T04:36:50.961Z,30.37
2023-04-17T04:39:20.761Z,31.33
2023-04-17T04:41:50.710Z,30.27
2023-04-17T04:44:19.035Z,31.03
2023-04-17T04:46:47.376Z,31.60
2023-04-17T04:49:15.729Z,31.73
2023-04-17T04:51:45.398Z,30.57
2023-04-17T04:54:13.619Z,29.33
2023-04-17T04:56:44.875Z,32.03
2023-04-17T04:59:13.282Z,31.70
2023-04-17T05:01:41.933Z,31.23
2023-04-17T05:04:10.426Z,32.07
2023-04-17T05:06:39.197Z,31.40
2023-04-17T05:09:08.836Z,32.60
2023-04-17T05:11:37.103Z,32.97
2023-04-17T05:14:05.387Z,31.13
2023-04-17T05:16:33.853Z,33.63
2023-04-17T05:19:02.164Z,33.83
2023-04-17T05:21:31.325Z,32.70
2023-04-17T05:23:59.589Z,34.10
2023-04-17T05:26:29.177Z,33.57
2023-04-17T05:28:57.410Z,33.27
2023-04-17T05:31:26.318Z,34.80
2023-04-17T05:33:54.591Z,33.83
2023-04-17T05:36:22.850Z,35.00
2023-04-17T05:38:51.194Z,35.17
2023-04-17T05:41:19.467Z,34.33
2023-04-17T05:43:49.045Z,33.57
2023-04-17T05:46:17.341Z,32.80
2023-04-17T05:48:45.658Z,34.47
2023-04-17T05:51:13.919Z,32.93
2023-04-17T05:53:44.635Z,32.87
2023-04-17T05:56:12.853Z,32.23
2023-04-17T05:58:41.056Z,32.47
2023-04-17T06:01:13.016Z,32.23
2023-04-17T06:03:41.404Z,31.93
2023-04-17T06:06:09.782Z,32.77
2023-04-17T06:08:37.975Z,33.10
2023-04-17T06:11:06.197Z,31.80
2023-04-17T06:13:34.533Z,32.97
2023-04-17T06:16:02.758Z,32.27
2023-04-17T06:18:32.301Z,32.53
2023-04-17T06:21:00.929Z,31.83
2023-04-17T06:23:29.212Z,32.10
2023-04-17T06:25:57.675Z,32.10
2023-04-17T06:28:25.891Z,33.13
2023-04-17T06:30:54.154Z,32.23
2023-04-17T06:33:24.063Z,31.87
2023-04-17T06:35:54.923Z,34.97
2023-04-17T06:38:24.273Z,31.67
2023-04-17T06:40:52.911Z,30.50
2023-04-17T06:43:21.286Z,31.40
2023-04-17T06:45:49.753Z,30.93
2023-04-17T06:48:17.950Z,30.57
2023-04-17T06:50:46.165Z,91.53
2023-04-17T06:53:15.856Z,30.33
2023-04-17T06:55:44.077Z,29.77
2023-04-17T06:58:12.321Z,31.03
2023-04-17T07:00:40.555Z,29.00
2023-04-17T07:03:09.160Z,30.10
2023-04-17T07:05:37.550Z,28.83
2023-04-17T07:08:06.051Z,26.87
2023-04-17T07:10:35.650Z,27.07
2023-04-17T07:13:03.935Z,27.23
2023-04-17T07:15:32.149Z,25.33
2023-04-17T07:18:00.472Z,27.20
2023-04-17T07:20:28.748Z,25.60
2023-04-17T07:22:57.277Z,26.03
2023-04-17T07:25:25.630Z,25.50
2023-04-17T07:27:55.401Z,24.47
2023-04-17T07:30:23.701Z,25.43
2023-04-17T07:32:52.556Z,24.73
2023-04-17T07:35:20.918Z,30.83
2023-04-17T07:37:49.128Z,24.83
2023-04-17T07:40:17.996Z,24.00
2023-04-17T07:42:46.275Z,23.37
2023-04-17T07:45:16.041Z,23.80
2023-04-17T07:47:46.177Z,23.30
2023-04-17T07:50:14.460Z,22.17
2023-04-17T07:52:42.656Z,22.93
2023-04-17T07:55:11.197Z,22.30
2023-04-17T07:57:42.937Z,21.93
2023-04-17T08:00:13.627Z,21.57
2023-04-17T08:02:43.500Z,20.13
2023-04-17T08:05:12.323Z,21.37
2023-04-17T08:07:41.176Z,19.90
2023-04-17T08:10:09.829Z,20.33
2023-04-17T08:12:38.142Z,19.63
2023-04-17T08:15:06.657Z,19.40
2023-04-17T08:17:35.026Z,17.67
2023-04-17T08:20:11.249Z,17.27
2023-04-17T08:22:42.878Z,19.40
2023-04-17T08:25:11.734Z,19.03
2023-04-17T08:27:40.823Z,16.97
2023-04-17T08:30:12.410Z,17.60
2023-04-17T08:32:42.047Z,16.33
2023-04-17T08:35:12.437Z,15.90
2023-04-17T08:37:40.869Z,14.77
2023-04-17T08:40:11.064Z,15.13
2023-04-17T08:42:40.126Z,14.67
2023-04-17T08:45:09.652Z,15.67
2023-04-17T08:47:37.937Z,17.03
2023-04-17T08:50:10.370Z,15.50
2023-04-17T08:52:43.712Z,15.57
2023-04-17T08:55:13.930Z,15.27
2023-04-17T08:58:03.557Z,13.97
2023-04-17T09:00:32.581Z,13.67
2023-04-17T09:03:01.735Z,13.53
2023-04-17T09:05:33.305Z,45.93
2023-04-17T09:08:10.379Z,13.00
2023-04-17T09:10:39.070Z,12.53
2023-04-17T09:13:07.812Z,11.83
2023-04-17T09:15:36.540Z,12.00
2023-04-17T09:18:05.224Z,11.47
2023-04-17T09:20:33.687Z,12.57
2023-04-17T09:23:03.000Z,11.60
2023-04-17T09:25:32.754Z,11.07
2023-04-17T09:28:11.497Z,11.03
2023-04-17T09:30:40.021Z,11.23
2023-04-17T09:33:09.389Z,10.80
2023-04-17T09:35:40.118Z,11.07
2023-04-17T09:38:08.706Z,10.30
2023-04-17T09:40:41.718Z,10.80
2023-04-17T09:43:11.312Z,11.00
2023-04-17T09:45:42.655Z,12.40
2023-04-17T09:48:11.971Z,11.67
2023-04-17T09:50:40.543Z,11.80
2023-04-17T09:53:09.462Z,11.47
2023-04-17T09:55:38.769Z,11.43
2023-04-17T09:58:08.929Z,10.93
2023-04-17T10:00:37.877Z,10.87
2023-04-17T10:03:06.477Z,10.70
2023-04-17T10:05:34.850Z,11.10
2023-04-17T10:08:03.278Z,10.07
2023-04-17T10:10:33.667Z,10.30
2023-04-17T10:13:03.009Z,10.30
2023-04-17T10:15:32.942Z,11.33
2023-04-17T10:18:16.132Z,11.90
2023-04-17T10:20:44.970Z,9.63
2023-04-17T10:23:32.446Z,10.48
2023-04-17T10:26:19.296Z,9.97
2023-04-17T10:28:51.486Z,9.53
2023-04-17T10:31:22.049Z,10.07
2023-04-17T10:33:50.692Z,9.95
2023-04-17T10:36:33.790Z,10.32
2023-04-17T10:39:14.152Z,9.27
2023-04-17T10:41:57.651Z,10.32
2023-04-17T10:44:26.402Z,10.02
2023-04-17T10:46:55.987Z,9.25
2023-04-17T10:49:24.217Z,10.13
2023-04-17T10:51:52.696Z,8.35
2023-04-17T10:54:21.068Z,9.75
2023-04-17T10:56:49.544Z,9.88
2023-04-17T10:59:18.217Z,8.98
2023-04-17T11:02:04.354Z,8.23
2023-04-17T11:04:33.846Z,8.60
2023-04-17T11:07:03.129Z,8.38
2023-04-17T11:09:31.584Z,7.95
2023-04-17T11:12:01.390Z,8.10
2023-04-17T11:14:30.425Z,7.45
2023-04-17T11:17:00.130Z,7.93
2023-04-17T11:19:28.446Z,7.47
2023-04-17T11:21:58.729Z,7.32
2023-04-17T11:24:27.610Z,7.63
2023-04-17T11:26:56.559Z,7.20
2023-04-17T11:29:26.120Z,7.32
2023-04-17T11:31:55.056Z,7.20
2023-04-17T11:34:24.865Z,6.88
2023-04-17T11:36:53.947Z,7.10
2023-04-17T11:39:22.754Z,7.38
2023-04-17T11:41:52.661Z,7.15
2023-04-17T11:44:21.618Z,6.75
2023-04-17T11:46:51.338Z,7.65
2023-04-17T11:49:27.211Z,6.53
2023-04-17T11:51:55.705Z,7.72
2023-04-17T11:54:27.592Z,7.20
2023-04-17T11:57:02.713Z,6.55
2023-04-17T11:59:31.651Z,7.13
2023-04-17T12:02:00.729Z,7.13
2023-04-17T12:04:33.455Z,7.35
2023-04-17T12:07:02.425Z,7.82
2023-04-17T12:09:32.161Z,7.57
2023-04-17T12:12:01.257Z,7.45
2023-04-17T12:14:29.591Z,7.65
2023-04-17T12:16:57.824Z,8.18
2023-04-17T12:19:27.948Z,6.95
2023-04-17T12:21:59.129Z,7.00
2023-04-17T12:24:27.629Z,7.22
2023-04-17T12:26:56.366Z,6.90
2023-04-17T12:29:40.522Z,7.47
2023-04-17T12:32:12.146Z,7.72
2023-04-17T12:34:40.578Z,7.10
2023-04-17T12:37:10.444Z,6.85
2023-04-17T12:39:38.738Z,6.78
2023-04-17T12:42:07.108Z,7.70
2023-04-17T12:44:35.571Z,7.53
2023-04-17T12:47:03.908Z,6.97
2023-04-17T12:49:32.251Z,7.05
2023-04-17T12:52:03.249Z,7.18
2023-04-17T12:54:33.682Z,7.70
2023-04-17T12:57:02.772Z,7.05
2023-04-17T12:59:31.239Z,7.53
2023-04-17T13:01:59.586Z,7.20
2023-04-17T13:04:28.221Z,7.68
2023-04-17T13:06:56.645Z,7.28
2023-04-17T13:09:24.914Z,8.55
2023-04-17T13:11:54.573Z,6.80
2023-04-17T13:14:22.756Z,8.43
2023-04-17T13:16:51.638Z,8.57
2023-04-17T13:19:19.942Z,9.38
2023-04-17T13:21:48.245Z,9.93
2023-04-17T13:24:16.738Z,9.95
2023-04-17T13:26:45.142Z,14.45
2023-04-17T13:29:17.042Z,10.13
2023-04-17T13:31:46.837Z,10.10
2023-04-17T13:34:15.134Z,9.70
2023-04-17T13:36:44.926Z,68.55
2023-04-17T13:39:13.636Z,10.45
2023-04-17T13:41:42.211Z,9.50
2023-04-17T13:44:10.476Z,8.77
2023-04-17T13:46:40.110Z,8.57
2023-04-17T13:49:08.361Z,7.93
2023-04-17T13:51:36.683Z,8.38
2023-04-17T13:54:05.260Z,8.18
2023-04-17T13:56:33.625Z,8.27
2023-04-17T13:59:01.901Z,8.43
2023-04-17T14:01:30.220Z,7.60
2023-04-17T14:04:00.502Z,8.00
2023-04-17T14:06:29.259Z,7.78
2023-04-17T14:08:57.864Z,8.20
2023-04-17T14:11:26.119Z,7.95
2023-04-17T14:13:54.370Z,8.43
2023-04-17T14:16:22.806Z,7.00
2023-04-17T14:18:51.671Z,7.43
2023-04-17T14:21:22.444Z,7.40
2023-04-17T14:23:51.826Z,15.68
2023-04-17T14:26:20.094Z,6.78
2023-04-17T14:28:48.349Z,7.53
2023-04-17T14:31:16.676Z,8.02
2023-04-17T14:33:44.921Z,7.90
2023-04-17T14:36:13.177Z,8.50
2023-04-17T14:38:42.811Z,8.77
2023-04-17T14:41:11.048Z,8.52
2023-04-17T14:43:39.271Z,8.30
2023-04-17T14:46:07.638Z,8.40
2023-04-17T14:48:44.224Z,8.60
2023-04-17T14:51:22.819Z,8.32
2023-04-17T14:53:52.981Z,8.32
2023-04-17T14:56:22.516Z,8.50
2023-04-17T14:58:50.832Z,8.38
2023-04-17T15:01:19.170Z,8.52
2023-04-17T15:03:48.566Z,8.60
2023-04-17T15:06:17.236Z,7.82
2023-04-17T15:08:46.517Z,8.25
2023-04-17T15:11:16.158Z,8.55
2023-04-17T15:13:44.426Z,8.32
2023-04-17T15:16:13.016Z,8.30
2023-04-17T15:18:41.238Z,8.85
2023-04-17T15:21:09.769Z,8.60
2023-04-17T15:23:37.987Z,8.20
2023-04-17T15:26:06.399Z,8.63
2023-04-17T15:28:36.834Z,8.85
2023-04-17T15:31:05.080Z,7.63
2023-04-17T15:33:33.303Z,8.55
2023-04-17T15:36:01.959Z,8.43
2023-04-17T15:38:30.212Z,8.90
2023-04-17T15:40:58.835Z,9.05
2023-04-17T15:43:27.124Z,8.40
2023-04-17T15:45:56.835Z,8.40
2023-04-17T15:48:25.079Z,9.55
2023-04-17T15:50:53.808Z,8.60
2023-04-17T15:53:22.013Z,9.05
2023-04-17T15:55:50.325Z,8.52
2023-04-17T15:58:18.657Z,8.80
2023-04-17T16:00:46.875Z,8.88
2023-04-17T16:03:16.563Z,7.90
2023-04-17T16:05:44.932Z,8.85
2023-04-17T16:08:13.221Z,8.20
2023-04-17T16:10:41.479Z,7.97
2023-04-17T16:13:09.961Z,7.43
2023-04-17T16:15:38.213Z,8.70
2023-04-17T16:18:06.637Z,7.85
2023-04-17T16:20:36.336Z,8.70
2023-04-17T16:23:04.537Z,8.63
2023-04-17T16:25:32.888Z,9.48
2023-04-17T16:28:01.181Z,9.40
2023-04-17T16:30:29.431Z,9.10
2023-04-17T16:32:57.732Z,8.70
2023-04-17T16:35:26.202Z,9.25
2023-04-17T16:37:55.866Z,8.88
2023-04-17T16:40:26.474Z,9.65
2023-04-17T16:42:55.118Z,8.80
2023-04-17T16:45:23.564Z,9.00
2023-04-17T16:47:51.966Z,9.50
2023-04-17T16:50:20.407Z,10.65
2023-04-17T16:52:50.353Z,10.68
2023-04-17T16:55:20.056Z,9.40
2023-04-17T16:57:48.294Z,9.52
2023-04-17T17:00:17.009Z,8.70
2023-04-17T17:02:45.362Z,8.53
2023-04-17T17:05:15.336Z,8.70
2023-04-17T17:07:43.598Z,8.63
2023-04-17T17:10:12.146Z,8.57
2023-04-17T17:12:41.728Z,8.40
2023-04-17T17:15:10.225Z,8.23
2023-04-17T17:17:38.480Z,8.40
2023-04-17T17:20:07.401Z,8.90
2023-04-17T17:22:35.601Z,8.35
2023-04-17T17:25:03.847Z,7.90
2023-04-17T17:27:32.092Z,8.32
2023-04-17T17:30:02.122Z,8.40
2023-04-17T17:32:30.426Z,8.35
2023-04-17T17:34:59.358Z,8.00
2023-04-17T17:37:27.604Z,8.88
2023-04-17T17:39:55.848Z,9.00
2023-04-17T17:42:24.414Z,8.63
2023-04-17T17:44:52.685Z,8.60
2023-04-17T17:47:22.322Z,8.43
2023-04-17T17:49:50.739Z,8.32
2023-04-17T17:52:18.926Z,8.83
2023-04-17T17:54:47.215Z,8.97
2023-04-17T17:57:15.499Z,8.93
2023-04-17T17:59:44.882Z,8.00
2023-04-17T18:02:13.357Z,8.70
2023-04-17T18:04:43.317Z,8.98
2023-04-17T18:07:11.654Z,9.10
2023-04-17T18:09:39.942Z,9.57
2023-04-17T18:12:08.487Z,8.57
2023-04-17T18:14:36.907Z,9.30
2023-04-17T18:17:05.192Z,9.43
2023-04-17T18:19:33.470Z,8.73
2023-04-17T18:22:03.272Z,8.80
2023-04-17T18:24:31.787Z,9.07
2023-04-17T18:27:00.065Z,9.18
2023-04-17T18:29:28.368Z,8.60
2023-04-17T18:31:56.722Z,9.02
2023-04-17T18:34:24.963Z,8.93
2023-04-17T18:36:54.387Z,8.50
2023-04-17T18:39:24.061Z,8.60
2023-04-17T18:41:52.279Z,8.77
2023-04-17T18:44:20.665Z,8.23
2023-04-17T18:46:48.995Z,8.87
2023-04-17T18:49:17.282Z,8.63
2023-04-17T18:51:47.839Z,8.33
2023-04-17T18:54:16.711Z,8.27
2023-04-17T18:56:46.303Z,8.33
2023-04-17T18:59:14.813Z,9.00
2023-04-17T19:01:43.730Z,8.20
2023-04-17T19:04:12.266Z,8.50
2023-04-17T19:06:40.941Z,8.50
2023-04-17T19:09:09.221Z,9.43
2023-04-17T19:11:37.518Z,9.00
2023-04-17T19:14:07.136Z,8.50
2023-04-17T19:16:35.423Z,8.43
2023-04-17T19:19:05.432Z,7.70
2023-04-17T19:21:33.693Z,7.80
2023-04-17T19:24:01.953Z,8.23
2023-04-17T19:26:38.431Z,8.10
2023-04-17T19:29:08.121Z,7.33
2023-04-17T19:31:37.456Z,7.80
2023-04-17T19:34:06.925Z,7.30
2023-04-17T19:36:35.894Z,7.33
2023-04-17T19:39:04.868Z,7.20
2023-04-17T19:41:33.099Z,6.93
2023-04-17T19:44:01.356Z,6.60
2023-04-17T19:46:31.010Z,6.53
2023-04-17T19:48:59.461Z,6.77
2023-04-17T19:51:28.005Z,6.87
2023-04-17T19:53:56.314Z,6.63
2023-04-17T19:56:24.657Z,7.10
2023-04-17T19:58:52.927Z,7.03
2023-04-17T20:01:21.238Z,7.13
2023-04-17T20:03:51.597Z,7.33
2023-04-17T20:06:20.449Z,7.07
2023-04-17T20:08:48.704Z,7.10
2023-04-17T20:11:17.838Z,6.83
2023-04-17T20:13:46.064Z,6.67
2023-04-17T20:16:14.285Z,6.97
2023-04-17T20:18:43.433Z,6.87
2023-04-17T20:21:13.187Z,6.57
2023-04-17T20:23:41.546Z,6.60
2023-04-17T20:26:09.828Z,6.60
2023-04-17T20:28:38.326Z,6.57
2023-04-17T20:31:06.665Z,7.43
2023-04-17T20:33:35.016Z,7.33
2023-04-17T20:36:03.791Z,6.47
2023-04-17T20:38:33.450Z,6.40
2023-04-17T20:41:01.685Z,6.40
2023-04-17T20:43:29.907Z,6.60
2023-04-17T20:45:59.081Z,6.63
2023-04-17T20:48:27.480Z,5.97
2023-04-17T20:50:55.729Z,6.70
2023-04-17T20:53:23.978Z,6.07
2023-04-17T20:55:54.546Z,6.03
2023-04-17T20:58:24.194Z,6.30
2023-04-17T21:01:00.733Z,6.07
2023-04-17T21:03:30.632Z,6.33
2023-04-17T21:05:59.498Z,6.40
2023-04-17T21:08:27.965Z,6.40
2023-04-17T21:10:57.582Z,5.93
2023-04-17T21:13:25.827Z,6.43
2023-04-17T21:15:54.096Z,5.80
2023-04-17T21:18:22.372Z,6.13
2023-04-17T21:20:55.846Z,6.10
2023-04-17T21:23:24.146Z,5.80
2023-04-17T21:25:53.643Z,6.20
2023-04-17T21:28:23.391Z,6.40
2023-04-17T21:30:51.792Z,6.10
2023-04-17T21:33:20.049Z,6.27
2023-04-17T21:35:48.291Z,6.63
2023-04-17T21:38:16.601Z,6.30
2023-04-17T21:43:16.016Z,6.63
2023-04-17T21:45:45.704Z,6.70
2023-04-17T21:48:15.668Z,6.30
2023-04-17T21:50:43.895Z,6.87
2023-04-17T21:53:12.224Z,6.63
2023-04-17T21:55:40.651Z,6.93
2023-04-17T21:58:08.900Z,7.10
2023-04-17T22:00:37.202Z,7.33
2023-04-17T22:03:06.850Z,6.90
2023-04-17T22:05:35.097Z,7.00
2023-04-17T22:08:03.456Z,7.13
2023-04-17T22:10:31.865Z,7.20
2023-04-17T22:13:00.140Z,7.10
2023-04-17T22:15:28.400Z,7.13
2023-04-17T22:17:56.786Z,6.73
2023-04-17T22:20:26.710Z,7.00
2023-04-17T22:22:55.171Z,7.47
2023-04-17T22:25:23.406Z,6.87
2023-04-17T22:27:51.734Z,7.20
2023-04-17T22:30:20.019Z,7.73
2023-04-17T22:32:48.280Z,7.20
2023-04-17T22:35:16.508Z,7.30
2023-04-17T22:37:46.225Z,7.27
2023-04-17T22:40:15.029Z,6.87
2023-04-17T22:42:44.187Z,6.70
2023-04-17T22:45:12.396Z,7.07
2023-04-17T22:47:41.111Z,7.07
2023-04-17T22:50:11.087Z,7.10
2023-04-17T22:52:39.352Z,6.70
2023-04-17T22:55:09.647Z,7.30
2023-04-17T22:57:37.866Z,6.33
2023-04-17T23:00:08.976Z,6.33
2023-04-17T23:02:37.444Z,6.80
2023-04-17T23:05:06.169Z,6.93
2023-04-17T23:07:34.536Z,7.13
2023-04-17T23:10:02.764Z,6.53
2023-04-17T23:12:32.975Z,6.60
2023-04-17T23:15:01.283Z,6.73
2023-04-17T23:17:29.629Z,6.70
2023-04-17T23:19:57.930Z,6.63
2023-04-17T23:22:26.194Z,6.27
2023-04-17T23:24:54.472Z,5.97
2023-04-17T23:27:22.687Z,6.50
2023-04-17T23:29:52.285Z,6.63
2023-04-17T23:32:20.560Z,6.57
2023-04-17T23:34:48.822Z,6.20
2023-04-17T23:37:17.103Z,5.87
2023-04-17T23:39:45.328Z,6.17
2023-04-17T23:42:14.057Z,6.23
2023-04-17T23:44:42.248Z,6.00
2023-04-17T23:47:12.200Z,5.90
2023-04-17T23:49:40.894Z,5.80
2023-04-17T23:52:09.122Z,5.47
2023-04-17T23:54:37.334Z,5.80
2023-04-17T23:57:05.685Z,5.77
2023-04-17T23:59:33.880Z,5.00
